Time;durP1;ratioP1;P1;durP2;ratioP2;P2;SDS_P1;SDS_P2;PMS_P1;PMS_P2;Temp;Humidity;BMP_temperature;BMP_pressure;BME280_temperature;BME280_humidity;BME280_pressure;Samples;Min_cycle;Max_cycle;Signal;HPM_P1;HPM_P2
2022/02/05 00:02:53;;;;;;;15.90;12.77;;;;;;;;;;5073078;28;20285;-81
2022/02/05 00:05:29;;;;;;;65.13;37.57;;;;;;;;;;5072480;28;20240;-82
2022/02/05 00:08:11;;;;;;;27.67;19.13;;;;;;;;;;5072764;28;20197;-82
2022/02/05 00:11:08;;;;;;;21.63;14.17;;;;;;;;;;5072859;28;20200;-81
2022/02/05 00:14:16;;;;;;;79.80;40.37;;;;;;;;;;5074316;28;20550;-81
2022/02/05 00:38:57;;;;;;;36.83;19.17;;;;;;;;;;5135877;27;20719;-80
2022/02/05 00:41:28;;;;;;;31.90;19.90;;;;;;;;;;5135331;27;20214;-80
2022/02/05 00:43:57;;;;;;;38.80;22.03;;;;;;;;;;5134868;27;20238;-80
2022/02/05 00:46:27;;;;;;;61.27;34.43;;;;;;;;;;5135054;27;20321;-80
2022/02/05 00:48:55;;;;;;;36.17;20.03;;;;;;;;;;5135000;27;20195;-81
2022/02/05 00:51:27;;;;;;;43.50;28.87;;;;;;;;;;5135054;27;20203;-81
2022/02/05 00:54:05;;;;;;;28.30;19.73;;;;;;;;;;5134965;27;20604;-81
2022/02/05 00:57:17;;;;;;;29.53;23.27;;;;;;;;;;5135328;27;20182;-81
2022/02/05 00:59:39;;;;;;;23.77;18.23;;;;;;;;;;5134634;27;20251;-80
2022/02/05 01:02:06;;;;;;;24.00;18.73;;;;;;;;;;5135004;27;20201;-81
2022/02/05 01:04:33;;;;;;;39.40;30.83;;;;;;;;;;5134922;27;20223;-81
2022/02/05 01:07:01;;;;;;;30.93;22.47;;;;;;;;;;5134656;27;20252;-80
2022/02/05 01:09:29;;;;;;;19.73;15.37;;;;;;;;;;5134661;27;20332;-81
2022/02/05 01:11:58;;;;;;;15.30;12.83;;;;;;;;;;5134518;27;20195;-81
2022/02/05 01:14:30;;;;;;;12.97;10.50;;;;;;;;;;5135257;27;20194;-81
2022/02/05 01:17:01;;;;;;;13.20;9.90;;;;;;;;;;5134475;27;20183;-81
2022/02/05 01:19:53;;;;;;;10.83;8.77;;;;;;;;;;5134067;27;20639;-81
2022/02/05 01:22:20;;;;;;;9.10;7.83;;;;;;;;;;5132766;27;20187;-81
2022/02/05 01:24:51;;;;;;;12.10;9.07;;;;;;;;;;5134182;27;20215;-81
2022/02/05 01:27:29;;;;;;;11.33;8.20;;;;;;;;;;5134287;27;20223;-81
2022/02/05 01:30:08;;;;;;;28.83;19.13;;;;;;;;;;5134176;27;20551;-81
2022/02/05 01:32:39;;;;;;;26.07;15.93;;;;;;;;;;5134191;27;20186;-81
2022/02/05 01:35:13;;;;;;;16.67;11.90;;;;;;;;;;5134569;27;20207;-80
2022/02/05 01:51:48;;;;;;;14.00;11.37;;;;;;;;;;5132066;27;20191;-80
2022/02/05 01:54:32;;;;;;;18.60;12.00;;;;;;;;;;5133855;27;20190;-80
2022/02/05 01:57:05;;;;;;;14.30;11.50;;;;;;;;;;5133741;27;20285;-81
2022/02/05 01:59:48;;;;;;;10.60;9.50;;;;;;;;;;5133885;27;20274;-80
2022/02/05 02:05:02;;;;;;;10.93;9.60;;;;;;;;;;5133814;27;20205;-81
2022/02/05 02:15:46;;;;;;;16.20;11.80;;;;;;;;;;5133480;27;20581;-80
2022/02/05 02:18:26;;;;;;;15.80;11.37;;;;;;;;;;5133841;27;20208;-82
2022/02/05 02:21:07;;;;;;;13.17;9.77;;;;;;;;;;5133643;27;20626;-80
2022/02/05 02:23:50;;;;;;;11.23;9.47;;;;;;;;;;5133464;27;20185;-81
2022/02/05 02:26:26;;;;;;;13.87;10.13;;;;;;;;;;5133431;27;20751;-81
2022/02/05 02:29:00;;;;;;;14.97;10.37;;;;;;;;;;5133403;27;20250;-81
2022/02/05 02:31:31;;;;;;;10.93;9.13;;;;;;;;;;5133526;27;20195;-81
2022/02/05 02:34:01;;;;;;;14.23;9.93;;;;;;;;;;5133306;27;20175;-81
2022/02/05 02:36:34;;;;;;;12.17;9.73;;;;;;;;;;5133224;27;20198;-81
2022/02/05 02:39:08;;;;;;;10.10;8.17;;;;;;;;;;5133660;27;20301;-80
2022/02/05 02:41:42;;;;;;;9.87;7.83;;;;;;;;;;5133448;27;20659;-81
2022/02/05 02:44:10;;;;;;;10.43;6.90;;;;;;;;;;5133712;28;20608;-81
2022/02/05 02:46:37;;;;;;;26.80;17.53;;;;;;;;;;5133438;28;20198;-80
2022/02/05 02:49:06;;;;;;;9.37;7.73;;;;;;;;;;5133671;28;20702;-81
2022/02/05 02:57:16;;;;;;;6.83;5.67;;;;;;;;;;5133229;28;20200;-80
2022/02/05 02:59:52;;;;;;;6.80;5.63;;;;;;;;;;5133169;28;20198;-81
2022/02/05 03:02:22;;;;;;;7.23;5.83;;;;;;;;;;5132998;27;20186;-80
2022/02/05 03:04:49;;;;;;;12.27;7.43;;;;;;;;;;5134731;27;20235;-80
2022/02/05 03:07:17;;;;;;;65.40;34.17;;;;;;;;;;5137907;27;20222;-81
2022/02/05 03:09:46;;;;;;;91.03;44.53;;;;;;;;;;5137063;27;20274;-80
2022/02/05 03:12:14;;;;;;;19.43;11.83;;;;;;;;;;5137199;27;20303;-81
2022/02/05 03:14:41;;;;;;;7.53;6.27;;;;;;;;;;5136815;27;20194;-80
2022/02/05 03:17:19;;;;;;;10.27;6.87;;;;;;;;;;5136769;27;20285;-81
2022/02/05 03:19:47;;;;;;;7.33;6.60;;;;;;;;;;5137105;27;20190;-80
2022/02/05 03:22:16;;;;;;;7.10;6.27;;;;;;;;;;5136909;27;20220;-81
2022/02/05 03:24:45;;;;;;;9.70;7.17;;;;;;;;;;5136535;27;20733;-80
2022/02/05 03:27:14;;;;;;;6.40;5.80;;;;;;;;;;5136509;27;20191;-81
2022/02/05 03:29:45;;;;;;;8.47;6.73;;;;;;;;;;5136619;27;20195;-81
2022/02/05 03:32:12;;;;;;;8.77;6.67;;;;;;;;;;5136493;27;20265;-81
2022/02/05 03:34:39;;;;;;;10.53;7.50;;;;;;;;;;5136466;27;20247;-80
2022/02/05 03:37:07;;;;;;;13.83;9.03;;;;;;;;;;5136714;27;20241;-80
2022/02/05 03:39:35;;;;;;;41.23;22.00;;;;;;;;;;5136732;27;20609;-81
2022/02/05 03:42:04;;;;;;;13.20;10.03;;;;;;;;;;5135941;27;20248;-80
2022/02/05 03:44:32;;;;;;;12.87;9.03;;;;;;;;;;5136236;27;20294;-81
2022/02/05 03:46:59;;;;;;;14.67;8.80;;;;;;;;;;5136275;27;20751;-80
2022/02/05 03:49:27;;;;;;;10.77;8.87;;;;;;;;;;5136629;27;20618;-81
2022/02/05 03:51:54;;;;;;;17.27;12.00;;;;;;;;;;5136446;27;20616;-80
2022/02/05 03:54:24;;;;;;;25.97;18.10;;;;;;;;;;5136308;27;20573;-81
2022/02/05 03:56:51;;;;;;;32.63;21.93;;;;;;;;;;5136196;27;20244;-81
2022/02/05 03:59:20;;;;;;;20.53;14.00;;;;;;;;;;5136192;27;20222;-80
2022/02/05 04:01:48;;;;;;;10.27;8.23;;;;;;;;;;5135978;27;20190;-81
2022/02/05 04:04:15;;;;;;;9.03;8.00;;;;;;;;;;5135757;27;20198;-81
2022/02/05 04:06:42;;;;;;;13.13;9.80;;;;;;;;;;5136774;27;20255;-80
2022/02/05 04:09:17;;;;;;;12.00;9.03;;;;;;;;;;5135803;27;20200;-81
2022/02/05 04:11:57;;;;;;;9.50;7.53;;;;;;;;;;5135849;27;20185;-81
2022/02/05 04:17:11;;;;;;;8.93;7.47;;;;;;;;;;5135812;27;20178;-81
2022/02/05 04:19:38;;;;;;;11.83;9.27;;;;;;;;;;5135934;27;20289;-81
2022/02/05 04:22:06;;;;;;;21.10;14.90;;;;;;;;;;5135660;27;20223;-81
2022/02/05 04:24:33;;;;;;;19.73;16.20;;;;;;;;;;5135639;27;20183;-81
2022/02/05 04:27:00;;;;;;;27.73;20.83;;;;;;;;;;5135496;27;20289;-80
2022/02/05 04:29:29;;;;;;;19.27;16.17;;;;;;;;;;5135466;27;20191;-81
2022/02/05 04:31:56;;;;;;;14.23;11.07;;;;;;;;;;5135814;27;20199;-81
2022/02/05 04:34:24;;;;;;;16.97;11.63;;;;;;;;;;5135642;27;20198;-80
2022/02/05 04:36:51;;;;;;;12.23;10.90;;;;;;;;;;5135747;27;20276;-81
2022/02/05 04:39:20;;;;;;;12.30;10.13;;;;;;;;;;5135759;27;20201;-81
2022/02/05 04:41:53;;;;;;;10.67;8.93;;;;;;;;;;5134874;27;20202;-81
2022/02/05 04:44:31;;;;;;;15.00;8.93;;;;;;;;;;5135153;27;20273;-81
2022/02/05 04:47:37;;;;;;;15.00;12.73;;;;;;;;;;5135154;27;20186;-80
2022/02/05 04:50:35;;;;;;;10.70;9.57;;;;;;;;;;5135601;27;20203;-80
2022/02/05 04:53:28;;;;;;;9.63;8.47;;;;;;;;;;5134975;27;20202;-80
2022/02/05 04:56:19;;;;;;;18.33;13.03;;;;;;;;;;5135219;27;20213;-81
2022/02/05 05:01:42;;;;;;;10.00;8.37;;;;;;;;;;5089721;27;20203;-81
2022/02/05 05:04:22;;;;;;;12.83;8.33;;;;;;;;;;5134931;27;20259;-81
2022/02/05 05:07:49;;;;;;;10.13;8.20;;;;;;;;;;5134937;27;20210;-81
2022/02/05 05:09:53;;;;;;;11.43;8.77;;;;;;;;;;5134445;27;20201;-81
2022/02/05 05:12:29;;;;;;;9.03;8.10;;;;;;;;;;5135783;27;20191;-80
2022/02/05 05:20:27;;;;;;;12.30;9.97;;;;;;;;;;5134821;27;20193;-80
2022/02/05 05:22:54;;;;;;;13.27;10.47;;;;;;;;;;5134322;27;20199;-80
2022/02/05 05:25:21;;;;;;;35.80;25.27;;;;;;;;;;5134561;27;20714;-80
2022/02/05 05:27:49;;;;;;;22.37;15.93;;;;;;;;;;5133397;27;20233;-80
2022/02/05 05:30:16;;;;;;;15.73;13.50;;;;;;;;;;5134582;27;20630;-81
2022/02/05 05:32:43;;;;;;;13.67;11.33;;;;;;;;;;5134196;27;20244;-81
2022/02/05 05:35:11;;;;;;;11.33;8.80;;;;;;;;;;5136352;27;20629;-80
2022/02/05 05:37:39;;;;;;;12.87;10.13;;;;;;;;;;5133975;27;20203;-80
2022/02/05 05:40:08;;;;;;;13.43;11.00;;;;;;;;;;5134304;27;20278;-81
2022/02/05 05:42:39;;;;;;;27.83;21.47;;;;;;;;;;5133990;27;20309;-80
2022/02/05 05:45:28;;;;;;;27.20;20.20;;;;;;;;;;5134196;27;20217;-80
2022/02/05 05:47:57;;;;;;;19.80;14.57;;;;;;;;;;5135276;27;20179;-81
2022/02/05 05:50:58;;;;;;;20.37;12.73;;;;;;;;;;5134846;27;20719;-81
2022/02/05 05:53:29;;;;;;;25.60;15.60;;;;;;;;;;5134121;27;20187;-81
2022/02/05 05:56:01;;;;;;;25.43;14.57;;;;;;;;;;5136173;27;20673;-81
2022/02/05 05:58:28;;;;;;;25.03;18.73;;;;;;;;;;5134154;27;20190;-80
2022/02/05 06:00:56;;;;;;;20.93;16.43;;;;;;;;;;5133854;27;20290;-79
2022/02/05 06:03:23;;;;;;;61.07;36.63;;;;;;;;;;5133536;27;20205;-80
2022/02/05 06:05:50;;;;;;;65.90;41.27;;;;;;;;;;5126801;27;20215;-80
2022/02/05 06:08:18;;;;;;;38.33;24.20;;;;;;;;;;5112884;28;20191;-80
2022/02/05 06:10:47;;;;;;;22.70;16.07;;;;;;;;;;5113154;28;20199;-80
2022/02/05 06:13:14;;;;;;;13.37;11.03;;;;;;;;;;5113071;28;20222;-80
2022/02/05 06:15:43;;;;;;;21.17;13.37;;;;;;;;;;5113217;28;20199;-80
2022/02/05 06:18:11;;;;;;;22.57;15.60;;;;;;;;;;5113404;28;20268;-80
2022/02/05 06:20:39;;;;;;;23.90;15.80;;;;;;;;;;5112624;28;20659;-80
2022/02/05 06:23:06;;;;;;;14.40;10.90;;;;;;;;;;5112966;28;20216;-80
2022/02/05 06:25:33;;;;;;;13.60;10.27;;;;;;;;;;5114770;28;20219;-80
2022/02/05 06:28:02;;;;;;;11.57;8.93;;;;;;;;;;5120300;27;20206;-80
2022/02/05 06:30:29;;;;;;;11.50;7.83;;;;;;;;;;5122369;27;20216;-80
2022/02/05 06:32:56;;;;;;;7.47;6.40;;;;;;;;;;5113597;28;20195;-81
2022/02/05 06:35:23;;;;;;;9.77;7.07;;;;;;;;;;5112776;28;20574;-81
2022/02/05 06:37:51;;;;;;;11.47;9.03;;;;;;;;;;5112390;28;20234;-81
2022/02/05 06:40:18;;;;;;;16.70;11.93;;;;;;;;;;5113655;28;20234;-82
2022/02/05 06:42:46;;;;;;;29.37;19.23;;;;;;;;;;5112372;28;20255;-81
2022/02/05 06:45:16;;;;;;;47.30;34.70;;;;;;;;;;5112674;28;20199;-82
2022/02/05 06:47:43;;;;;;;32.10;25.30;;;;;;;;;;5112322;28;20195;-83
2022/02/05 06:50:11;;;;;;;23.97;18.37;;;;;;;;;;5112686;28;20274;-82
2022/02/05 06:52:38;;;;;;;20.67;16.97;;;;;;;;;;5113038;28;20218;-83
2022/02/05 06:55:07;;;;;;;25.97;18.43;;;;;;;;;;5112352;28;20195;-84
2022/02/05 06:57:34;;;;;;;25.40;19.20;;;;;;;;;;5113648;28;20202;-84
2022/02/05 07:00:02;;;;;;;22.07;16.63;;;;;;;;;;5112693;28;20556;-85
2022/02/05 07:02:31;;;;;;;26.33;19.73;;;;;;;;;;5112645;28;20197;-86
2022/02/05 07:04:58;;;;;;;24.07;19.07;;;;;;;;;;5112525;28;20188;-85
2022/02/05 07:07:26;;;;;;;15.40;13.80;;;;;;;;;;5114151;28;20223;-88
2022/02/05 07:09:53;;;;;;;20.13;14.93;;;;;;;;;;5112950;28;20195;-86
2022/02/05 07:12:20;;;;;;;18.33;13.37;;;;;;;;;;5113529;28;20660;-87
2022/02/05 07:14:59;;;;;;;15.40;11.43;;;;;;;;;;5112434;28;20196;-86
2022/02/05 07:17:35;;;;;;;17.27;13.77;;;;;;;;;;5113048;28;20239;-87
2022/02/05 07:20:13;;;;;;;18.13;13.93;;;;;;;;;;5112848;28;20244;-86
2022/02/05 07:22:53;;;;;;;17.87;11.97;;;;;;;;;;5112418;28;20222;-85
2022/02/05 07:30:48;;;;;;;50.77;31.87;;;;;;;;;;5130752;28;20242;-85
2022/02/05 07:33:15;;;;;;;49.23;31.23;;;;;;;;;;5126842;28;20211;-85
2022/02/05 07:35:44;;;;;;;34.53;26.00;;;;;;;;;;5112248;28;20202;-84
2022/02/05 07:38:11;;;;;;;34.00;24.87;;;;;;;;;;5113006;28;20257;-84
2022/02/05 07:40:39;;;;;;;39.00;24.67;;;;;;;;;;5113421;28;20282;-84
2022/02/05 07:43:06;;;;;;;32.00;21.77;;;;;;;;;;5111893;28;20263;-84
2022/02/05 07:45:33;;;;;;;17.67;12.97;;;;;;;;;;5112204;28;20200;-84
2022/02/05 07:48:00;;;;;;;8.97;7.83;;;;;;;;;;5112987;28;20199;-84
2022/02/05 07:50:28;;;;;;;16.50;12.40;;;;;;;;;;5113389;28;20196;-85
2022/02/05 07:52:56;;;;;;;20.43;15.70;;;;;;;;;;5115999;28;20195;-85
2022/02/05 07:55:24;;;;;;;29.20;25.63;;;;;;;;;;5116385;28;20282;-85
2022/02/05 07:57:51;;;;;;;19.03;16.17;;;;;;;;;;5116039;28;20629;-85
2022/02/05 08:00:18;;;;;;;8.67;6.90;;;;;;;;;;5115517;28;20191;-85
2022/02/05 08:02:46;;;;;;;6.83;5.63;;;;;;;;;;5115626;28;20191;-85
2022/02/05 08:05:13;;;;;;;9.13;6.90;;;;;;;;;;5115615;28;20234;-85
2022/02/05 08:07:41;;;;;;;7.50;6.57;;;;;;;;;;5115812;28;20310;-85
2022/02/05 08:10:11;;;;;;;7.07;6.33;;;;;;;;;;5115785;28;20195;-85
2022/02/05 08:12:42;;;;;;;6.03;5.43;;;;;;;;;;5115842;28;20194;-85
2022/02/05 08:15:09;;;;;;;6.50;5.90;;;;;;;;;;5115723;28;20180;-85
2022/02/05 08:17:42;;;;;;;9.97;7.87;;;;;;;;;;5115925;28;20717;-86
2022/02/05 08:20:11;;;;;;;10.33;7.20;;;;;;;;;;5132553;27;20199;-87
2022/02/05 08:22:38;;;;;;;10.57;8.00;;;;;;;;;;5136085;27;20569;-86
2022/02/05 08:25:06;;;;;;;9.97;8.57;;;;;;;;;;5135901;27;20228;-86
2022/02/05 08:27:35;;;;;;;16.37;11.63;;;;;;;;;;5135764;27;20260;-86
2022/02/05 08:30:07;;;;;;;14.93;12.40;;;;;;;;;;5135525;27;20681;-87
2022/02/05 08:32:34;;;;;;;12.83;10.30;;;;;;;;;;5115718;28;20192;-87
2022/02/05 08:35:01;;;;;;;9.87;7.13;;;;;;;;;;5115061;28;20192;-86
2022/02/05 08:37:29;;;;;;;6.63;5.97;;;;;;;;;;5115961;27;20202;-86
2022/02/05 08:39:56;;;;;;;6.43;5.53;;;;;;;;;;5115069;28;20573;-85
2022/02/05 08:42:24;;;;;;;9.07;6.00;;;;;;;;;;5114472;28;20227;-85
2022/02/05 08:44:52;;;;;;;10.03;6.60;;;;;;;;;;5114674;28;20710;-85
2022/02/05 08:47:20;;;;;;;6.93;5.60;;;;;;;;;;5115555;28;20222;-89
2022/02/05 08:49:47;;;;;;;6.70;5.73;;;;;;;;;;5115534;28;20203;-87
2022/02/05 08:52:15;;;;;;;5.30;4.50;;;;;;;;;;5115632;27;20206;-87
2022/02/05 08:54:42;;;;;;;6.27;4.73;;;;;;;;;;5114905;28;20195;-87
2022/02/05 08:57:10;;;;;;;6.30;4.87;;;;;;;;;;5132656;27;20631;-87
2022/02/05 08:59:47;;;;;;;6.07;4.60;;;;;;;;;;5134455;27;20195;-85
2022/02/05 09:02:21;;;;;;;7.17;5.23;;;;;;;;;;5135549;27;20279;-87
2022/02/05 09:04:55;;;;;;;6.53;4.80;;;;;;;;;;5135686;27;20619;-88
2022/02/05 09:07:22;;;;;;;6.07;5.27;;;;;;;;;;5135112;27;20612;-90
2022/02/05 09:10:03;;;;;;;6.73;4.27;;;;;;;;;;5141244;27;20194;-92
2022/02/05 09:13:06;;;;;;;7.47;5.70;;;;;;;;;;5135303;27;20205;-89
2022/02/05 09:15:21;;;;;;;5.90;4.77;;;;;;;;;;5135028;27;20218;-86
2022/02/05 09:17:50;;;;;;;7.20;5.50;;;;;;;;;;5135066;27;20666;-87
2022/02/05 09:20:17;;;;;;;6.33;5.50;;;;;;;;;;5135048;27;20191;-88
2022/02/05 09:22:45;;;;;;;6.57;5.93;;;;;;;;;;5135181;27;20229;-89
2022/02/05 09:25:15;;;;;;;8.90;7.90;;;;;;;;;;5133810;27;20209;-86
2022/02/05 09:27:45;;;;;;;10.50;9.03;;;;;;;;;;5133216;27;20211;-84
2022/02/05 09:30:15;;;;;;;11.17;9.47;;;;;;;;;;5113014;28;20244;-84
2022/02/05 09:32:42;;;;;;;10.20;8.60;;;;;;;;;;5113298;28;20252;-84
2022/02/05 09:35:12;;;;;;;10.40;9.30;;;;;;;;;;5113111;28;20191;-86
2022/02/05 09:37:39;;;;;;;14.90;9.23;;;;;;;;;;5112864;28;20195;-85
2022/02/05 09:40:07;;;;;;;9.70;8.20;;;;;;;;;;5113293;28;20251;-85
2022/02/05 09:42:34;;;;;;;39.03;24.73;;;;;;;;;;5112621;28;20239;-87
2022/02/05 09:45:02;;;;;;;34.90;18.97;;;;;;;;;;5112878;28;20196;-85
2022/02/05 09:47:30;;;;;;;31.37;21.83;;;;;;;;;;5112897;28;20226;-85
2022/02/05 09:49:57;;;;;;;25.20;16.33;;;;;;;;;;5112701;28;20223;-85
2022/02/05 09:52:27;;;;;;;24.43;16.37;;;;;;;;;;5112917;28;20302;-87
2022/02/05 09:54:55;;;;;;;32.60;18.77;;;;;;;;;;5114548;28;20694;-87
2022/02/05 09:57:22;;;;;;;24.10;15.83;;;;;;;;;;5114004;28;20209;-87
2022/02/05 09:59:55;;;;;;;17.07;12.40;;;;;;;;;;5112989;28;20284;-86
2022/02/05 10:02:24;;;;;;;10.80;7.37;;;;;;;;;;5113202;28;20569;-83
2022/02/05 10:04:57;;;;;;;14.60;9.63;;;;;;;;;;5112353;28;20195;-83
2022/02/05 10:07:27;;;;;;;26.87;19.20;;;;;;;;;;5112007;28;20259;-84
2022/02/05 10:09:55;;;;;;;54.77;35.40;;;;;;;;;;5111829;28;20195;-84
2022/02/05 10:12:23;;;;;;;67.00;39.87;;;;;;;;;;5112010;28;20581;-84
2022/02/05 10:14:53;;;;;;;19.10;13.80;;;;;;;;;;5111413;28;20558;-83
2022/02/05 10:17:21;;;;;;;15.20;12.83;;;;;;;;;;5111811;28;20766;-84
2022/02/05 10:19:50;;;;;;;19.83;14.30;;;;;;;;;;5111621;28;20238;-84
2022/02/05 10:22:19;;;;;;;22.97;17.17;;;;;;;;;;5111946;28;20286;-84
2022/02/05 10:24:52;;;;;;;21.55;18.30;;;;;;;;;;5111149;28;20847;-84
2022/02/05 10:27:28;;;;;;;16.63;11.20;;;;;;;;;;5128079;27;20314;-84
2022/02/05 10:30:08;;;;;;;43.20;30.40;;;;;;;;;;5132517;27;20232;-84
2022/02/05 10:32:48;;;;;;;35.83;22.37;;;;;;;;;;5132204;27;20454;-83
2022/02/05 10:35:22;;;;;;;23.60;17.37;;;;;;;;;;5133579;27;20501;-83
2022/02/05 10:37:55;;;;;;;22.47;16.40;;;;;;;;;;5133139;27;20631;-83
2022/02/05 10:40:40;;;;;;;21.33;14.77;;;;;;;;;;5133447;27;20202;-85
2022/02/05 10:43:07;;;;;;;43.27;31.30;;;;;;;;;;5132838;27;20329;-83
2022/02/05 10:45:43;;;;;;;32.27;21.90;;;;;;;;;;5132980;27;20595;-83
2022/02/05 10:48:12;;;;;;;21.67;16.70;;;;;;;;;;5133002;27;20218;-84
2022/02/05 10:50:39;;;;;;;20.50;13.73;;;;;;;;;;5133071;28;20229;-83
2022/02/05 10:53:14;;;;;;;21.57;17.73;;;;;;;;;;5134357;28;20281;-82
2022/02/05 10:55:57;;;;;;;29.80;20.20;;;;;;;;;;5133301;28;20238;-82
2022/02/05 10:58:39;;;;;;;19.27;13.87;;;;;;;;;;5133047;27;20178;-81
2022/02/05 11:07:00;;;;;;;15.60;13.03;;;;;;;;;;5105496;27;20844;-81
2022/02/05 11:09:27;;;;;;;19.33;14.90;;;;;;;;;;5131791;27;20198;-83
2022/02/05 11:20:32;;;;;;;13.27;11.40;;;;;;;;;;5130286;27;20207;-82
2022/02/05 11:23:02;;;;;;;18.93;14.43;;;;;;;;;;5111303;28;20203;-83
2022/02/05 11:25:32;;;;;;;13.07;10.80;;;;;;;;;;5112179;28;20252;-83
2022/02/05 11:28:01;;;;;;;13.63;12.17;;;;;;;;;;5117446;27;20226;-81
2022/02/05 11:30:33;;;;;;;14.87;11.00;;;;;;;;;;5115282;28;20222;-82
2022/02/05 11:33:04;;;;;;;13.07;10.83;;;;;;;;;;5115003;28;20263;-84
2022/02/05 11:35:42;;;;;;;18.40;14.97;;;;;;;;;;5115325;28;20223;-82
2022/02/05 11:38:10;;;;;;;18.93;15.47;;;;;;;;;;5114939;28;20176;-83
2022/02/05 11:40:48;;;;;;;13.27;11.97;;;;;;;;;;5115079;28;20233;-83
2022/02/05 11:43:18;;;;;;;13.57;11.93;;;;;;;;;;5114757;28;20229;-84
2022/02/05 11:45:46;;;;;;;15.27;12.80;;;;;;;;;;5114476;28;20282;-83
2022/02/05 11:48:42;;;;;;;18.70;16.00;;;;;;;;;;5114682;28;20304;-83
2022/02/05 11:51:16;;;;;;;14.73;12.40;;;;;;;;;;5114931;28;20184;-83
2022/02/05 11:54:07;;;;;;;15.40;12.70;;;;;;;;;;5114789;28;20195;-83
2022/02/05 11:56:48;;;;;;;35.10;24.77;;;;;;;;;;5124443;27;20296;-84
2022/02/05 11:59:18;;;;;;;28.90;18.07;;;;;;;;;;5134596;27;20234;-83
2022/02/05 12:01:46;;;;;;;17.13;13.87;;;;;;;;;;5134922;27;20258;-84
2022/02/05 12:04:16;;;;;;;18.47;13.00;;;;;;;;;;5134882;27;20203;-83
2022/02/05 12:06:49;;;;;;;31.17;21.73;;;;;;;;;;5134670;27;20195;-83
2022/02/05 12:09:36;;;;;;;22.97;15.53;;;;;;;;;;5135010;27;20234;-84
2022/02/05 12:12:46;;;;;;;19.60;14.53;;;;;;;;;;5134631;27;20234;-84
2022/02/05 12:15:23;;;;;;;24.03;17.13;;;;;;;;;;5091440;28;20180;-83
2022/02/05 12:18:12;;;;;;;15.80;11.33;;;;;;;;;;5131350;27;20670;-84
2022/02/05 12:21:08;;;;;;;18.30;13.43;;;;;;;;;;5134737;27;20236;-83
2022/02/05 12:24:35;;;;;;;12.53;10.57;;;;;;;;;;5135052;27;20289;-83
2022/02/05 12:27:03;;;;;;;19.57;14.13;;;;;;;;;;5134346;27;20303;-84
2022/02/05 12:29:33;;;;;;;23.70;15.63;;;;;;;;;;5134669;27;20195;-84
2022/02/05 12:32:02;;;;;;;15.37;12.63;;;;;;;;;;5134304;27;20234;-83
2022/02/05 12:34:36;;;;;;;12.17;10.87;;;;;;;;;;5134302;27;20205;-82
2022/02/05 12:37:04;;;;;;;15.80;12.70;;;;;;;;;;5133961;27;20194;-83
2022/02/05 12:39:34;;;;;;;30.13;19.23;;;;;;;;;;5133801;27;20190;-83
2022/02/05 12:42:06;;;;;;;23.30;19.40;;;;;;;;;;5134216;27;20631;-81
2022/02/05 12:44:36;;;;;;;52.70;33.43;;;;;;;;;;5134278;27;20600;-83
2022/02/05 12:47:10;;;;;;;31.50;24.67;;;;;;;;;;5134461;27;20183;-83
2022/02/05 12:49:44;;;;;;;30.77;23.03;;;;;;;;;;5134123;27;20277;-83
2022/02/05 12:52:11;;;;;;;35.43;24.47;;;;;;;;;;5133739;27;20681;-83
2022/02/05 12:54:46;;;;;;;23.03;17.10;;;;;;;;;;5133709;27;20201;-83
2022/02/05 12:57:17;;;;;;;18.73;14.23;;;;;;;;;;5133751;27;20643;-83
2022/02/05 12:59:45;;;;;;;16.07;11.97;;;;;;;;;;5133746;27;20187;-84
2022/02/05 13:02:14;;;;;;;15.00;11.40;;;;;;;;;;5133714;27;20190;-84
2022/02/05 13:04:43;;;;;;;13.33;11.53;;;;;;;;;;5133511;27;20218;-83
2022/02/05 13:07:12;;;;;;;16.10;13.20;;;;;;;;;;5133543;27;20222;-83
2022/02/05 13:09:45;;;;;;;18.53;14.00;;;;;;;;;;5133571;27;20186;-83
2022/02/05 13:12:13;;;;;;;28.17;20.50;;;;;;;;;;5133668;27;20348;-84
2022/02/05 13:14:44;;;;;;;20.40;15.13;;;;;;;;;;5133410;27;20685;-84
2022/02/05 13:17:36;;;;;;;26.43;17.87;;;;;;;;;;5113900;27;20195;-83
2022/02/05 13:20:23;;;;;;;16.90;11.43;;;;;;;;;;5112748;28;20194;-84
2022/02/05 13:25:50;;;;;;;26.10;19.93;;;;;;;;;;5113122;28;20272;-83
2022/02/05 13:28:39;;;;;;;15.17;13.57;;;;;;;;;;5112631;28;20213;-84
2022/02/05 13:34:10;;;;;;;17.93;12.80;;;;;;;;;;5112571;28;20186;-84
2022/02/05 13:36:42;;;;;;;27.23;18.43;;;;;;;;;;5112423;28;20249;-84
2022/02/05 13:39:18;;;;;;;11.70;9.57;;;;;;;;;;5112718;28;20179;-83
2022/02/05 13:41:51;;;;;;;13.60;10.97;;;;;;;;;;5112500;28;20214;-84
2022/02/05 13:44:22;;;;;;;19.33;14.07;;;;;;;;;;5112332;28;20209;-84
2022/02/05 13:47:03;;;;;;;14.57;10.57;;;;;;;;;;5112610;28;20236;-84
2022/02/05 13:49:33;;;;;;;22.30;15.63;;;;;;;;;;5112125;28;20233;-83
2022/02/05 13:52:08;;;;;;;14.83;11.37;;;;;;;;;;5112385;28;20274;-83
2022/02/05 13:54:35;;;;;;;13.97;10.00;;;;;;;;;;5112078;28;20198;-83
2022/02/05 13:57:03;;;;;;;18.97;15.13;;;;;;;;;;5112706;28;20195;-83
2022/02/05 13:59:32;;;;;;;21.53;14.37;;;;;;;;;;5111933;28;20238;-84
2022/02/05 14:02:13;;;;;;;22.57;17.33;;;;;;;;;;5112820;28;20727;-83
2022/02/05 14:04:42;;;;;;;15.50;11.63;;;;;;;;;;5113162;28;20213;-83
2022/02/05 14:07:09;;;;;;;10.60;9.13;;;;;;;;;;5113320;28;20619;-83
2022/02/05 14:09:37;;;;;;;15.03;10.73;;;;;;;;;;5112878;28;20219;-84
2022/02/05 14:12:15;;;;;;;19.87;15.47;;;;;;;;;;5113464;28;20628;-84
2022/02/05 14:14:43;;;;;;;14.73;10.83;;;;;;;;;;5112774;28;20235;-83
2022/02/05 14:17:18;;;;;;;29.33;24.83;;;;;;;;;;5112796;28;20282;-83
2022/02/05 14:19:48;;;;;;;12.97;10.73;;;;;;;;;;5112635;28;20243;-83
2022/02/05 14:22:25;;;;;;;13.23;9.33;;;;;;;;;;5113083;28;20233;-83
2022/02/05 14:25:14;;;;;;;14.37;9.80;;;;;;;;;;5112637;28;20193;-84
2022/02/05 14:28:07;;;;;;;24.87;18.67;;;;;;;;;;5112579;28;20211;-83
2022/02/05 14:30:36;;;;;;;36.70;31.33;;;;;;;;;;5112866;28;20655;-84
2022/02/05 14:33:07;;;;;;;40.93;33.40;;;;;;;;;;5112600;28;20206;-84
2022/02/05 14:36:11;;;;;;;134.30;99.07;;;;;;;;;;5113052;28;20274;-84
2022/02/05 14:41:19;;;;;;;31.77;23.33;;;;;;;;;;5112834;28;20224;-84
2022/02/05 14:43:46;;;;;;;23.03;19.60;;;;;;;;;;5112484;28;20227;-83
2022/02/05 14:46:13;;;;;;;16.97;14.73;;;;;;;;;;5112330;28;20237;-83
2022/02/05 14:48:40;;;;;;;12.63;8.97;;;;;;;;;;5113709;28;20257;-83
2022/02/05 14:51:09;;;;;;;32.57;24.93;;;;;;;;;;5112928;28;20396;-83
2022/02/05 14:53:36;;;;;;;19.27;17.13;;;;;;;;;;5112314;28;20287;-84
2022/02/05 14:56:04;;;;;;;14.53;11.13;;;;;;;;;;5112568;27;20642;-84
2022/02/05 14:58:31;;;;;;;10.47;9.40;;;;;;;;;;5110925;28;20197;-84
2022/02/05 15:00:59;;;;;;;14.23;9.03;;;;;;;;;;5116450;28;20207;-83
2022/02/05 15:03:26;;;;;;;10.13;7.77;;;;;;;;;;5116332;28;20227;-83
2022/02/05 15:05:54;;;;;;;10.50;8.63;;;;;;;;;;5116295;28;20228;-84
2022/02/05 15:08:23;;;;;;;8.37;6.57;;;;;;;;;;5116305;28;20314;-84
2022/02/05 15:10:50;;;;;;;11.63;10.43;;;;;;;;;;5116261;28;20195;-83
2022/02/05 15:13:17;;;;;;;62.27;36.30;;;;;;;;;;5116343;28;20226;-85
2022/02/05 15:15:51;;;;;;;42.87;24.60;;;;;;;;;;5116162;28;20256;-85
2022/02/05 15:18:18;;;;;;;66.10;38.87;;;;;;;;;;5116201;28;20191;-84
2022/02/05 15:20:45;;;;;;;62.77;41.83;;;;;;;;;;5116278;28;20696;-84
2022/02/05 15:23:13;;;;;;;51.63;31.23;;;;;;;;;;5116179;28;20234;-85
2022/02/05 15:25:42;;;;;;;36.40;24.80;;;;;;;;;;5116275;28;20195;-86
2022/02/05 15:28:09;;;;;;;36.47;22.63;;;;;;;;;;5116282;28;20255;-85
2022/02/05 15:30:37;;;;;;;132.00;45.60;;;;;;;;;;5116530;28;20248;-85
2022/02/05 15:33:04;;;;;;;43.50;26.50;;;;;;;;;;5116037;28;20248;-84
2022/02/05 15:35:32;;;;;;;68.07;37.20;;;;;;;;;;5115753;28;20192;-83
2022/02/05 15:38:07;;;;;;;36.77;27.90;;;;;;;;;;5115971;28;20187;-84
2022/02/05 15:43:42;;;;;;;19.83;16.10;;;;;;;;;;5114865;28;20231;-85
2022/02/05 15:46:12;;;;;;;12.70;9.93;;;;;;;;;;5116027;28;20188;-85
2022/02/05 15:48:39;;;;;;;14.10;11.33;;;;;;;;;;5115658;28;20233;-84
2022/02/05 15:51:06;;;;;;;13.27;8.73;;;;;;;;;;5115882;27;20571;-85
2022/02/05 15:53:37;;;;;;;23.07;17.97;;;;;;;;;;5115788;28;20199;-85
2022/02/05 15:56:09;;;;;;;25.60;20.33;;;;;;;;;;5115563;28;20184;-85
2022/02/05 15:58:46;;;;;;;14.30;11.13;;;;;;;;;;5115690;28;20215;-85
2022/02/05 16:01:13;;;;;;;19.80;16.43;;;;;;;;;;5113941;28;20686;-84
2022/02/05 16:03:40;;;;;;;13.67;9.30;;;;;;;;;;5114762;28;20253;-84
2022/02/05 16:06:08;;;;;;;13.73;10.97;;;;;;;;;;5115463;28;20257;-85
2022/02/05 16:08:35;;;;;;;33.33;23.13;;;;;;;;;;5115328;28;20259;-85
2022/02/05 16:11:02;;;;;;;16.53;12.93;;;;;;;;;;5114499;28;20206;-85
2022/02/05 16:13:31;;;;;;;17.70;12.83;;;;;;;;;;5115182;28;20234;-85
2022/02/05 16:15:59;;;;;;;16.17;13.70;;;;;;;;;;5115118;28;20227;-85
2022/02/05 16:18:27;;;;;;;21.43;16.47;;;;;;;;;;5115290;28;20287;-85
2022/02/05 16:20:54;;;;;;;33.80;23.47;;;;;;;;;;5115083;28;20191;-85
2022/02/05 16:23:21;;;;;;;31.57;25.03;;;;;;;;;;5115005;28;20191;-85
2022/02/05 16:25:48;;;;;;;33.80;26.13;;;;;;;;;;5114821;28;20574;-85
2022/02/05 16:28:16;;;;;;;28.87;22.17;;;;;;;;;;5114801;28;20259;-85